createdAt,value
2022-12-08T00:01:51.982Z,85.43
2022-12-08T00:04:23.748Z,86.82
2022-12-08T00:07:10.029Z,93.20
2022-12-08T00:09:40.724Z,85.55
2022-12-08T00:12:13.453Z,83.13
2022-12-08T00:14:43.453Z,90.88
2022-12-08T00:17:12.898Z,88.30
2022-12-08T00:19:40.718Z,83.15
2022-12-08T00:22:11.797Z,81.47
2022-12-08T00:24:40.957Z,90.53
2022-12-08T00:27:09.860Z,84.00
2022-12-08T00:29:36.965Z,92.07
2022-12-08T00:32:05.655Z,91.85
2022-12-08T00:34:33.779Z,90.47
2022-12-08T00:37:01.322Z,86.95
2022-12-08T00:39:30.318Z,86.03
2022-12-08T00:42:14.793Z,89.47
2022-12-08T00:44:44.059Z,86.57
2022-12-08T00:47:13.898Z,91.20
2022-12-08T00:49:41.626Z,84.07
2022-12-08T00:52:09.144Z,76.15
2022-12-08T00:54:36.365Z,79.25
2022-12-08T00:57:04.539Z,79.68
2022-12-08T00:59:31.506Z,80.15
2022-12-08T01:02:01.436Z,77.00
2022-12-08T01:04:28.419Z,84.20
2022-12-08T01:06:57.565Z,75.85
2022-12-08T01:09:25.081Z,72.30
2022-12-08T01:11:53.819Z,66.22
2022-12-08T01:14:21.229Z,71.78
2022-12-08T01:16:48.638Z,74.60
2022-12-08T01:19:16.487Z,75.55
2022-12-08T01:21:47.739Z,74.60
2022-12-08T01:24:20.188Z,75.88
2022-12-08T01:26:49.954Z,69.63
2022-12-08T01:29:19.201Z,75.22
2022-12-08T01:31:48.764Z,82.10
2022-12-08T01:34:20.497Z,83.57
2022-12-08T01:36:52.534Z,85.15
2022-12-08T01:39:20.165Z,77.82
2022-12-08T01:41:49.213Z,82.45
2022-12-08T01:44:18.719Z,72.38
2022-12-08T01:46:56.025Z,74.32
2022-12-08T01:49:31.211Z,78.75
2022-12-08T01:52:13.373Z,75.35
2022-12-08T01:54:50.162Z,76.95
2022-12-08T01:57:55.904Z,75.72
2022-12-08T02:00:28.175Z,73.28
2022-12-08T02:03:04.940Z,72.45
2022-12-08T02:05:36.218Z,76.88
2022-12-08T02:08:07.196Z,68.75
2022-12-08T02:10:37.789Z,69.43
2022-12-08T02:13:14.882Z,68.28
2022-12-08T02:16:00.216Z,68.53
2022-12-08T02:18:40.806Z,66.30
2022-12-08T02:21:29.741Z,70.22
2022-12-08T02:24:05.617Z,63.15
2022-12-08T02:27:06.071Z,68.55
2022-12-08T02:30:07.143Z,63.10
2022-12-08T02:32:43.412Z,60.60
2022-12-08T02:35:28.537Z,60.05
2022-12-08T02:38:20.756Z,55.25
2022-12-08T02:41:15.244Z,53.28
2022-12-08T02:43:46.730Z,51.80
2022-12-08T02:46:23.029Z,50.08
2022-12-08T02:48:52.636Z,50.95
2022-12-08T02:51:20.235Z,55.88
2022-12-08T02:53:48.900Z,57.53
2022-12-08T02:56:35.895Z,58.28
2022-12-08T02:59:26.880Z,56.90
2022-12-08T03:02:46.983Z,60.08
2022-12-08T03:05:18.827Z,58.75
2022-12-08T03:08:16.416Z,59.55
2022-12-08T03:10:53.303Z,56.65
2022-12-08T03:13:30.236Z,49.55
2022-12-08T03:16:01.378Z,48.08
2022-12-08T03:18:31.701Z,55.25
2022-12-08T03:21:00.404Z,54.92
2022-12-08T03:23:31.513Z,44.05
2022-12-08T03:26:09.015Z,48.88
2022-12-08T03:28:36.179Z,45.35
2022-12-08T03:31:07.997Z,43.83
2022-12-08T03:33:40.903Z,49.28
2022-12-08T03:36:10.384Z,53.88
2022-12-08T03:38:50.269Z,49.95
2022-12-08T03:41:21.662Z,49.03
2022-12-08T03:43:57.687Z,35.72
2022-12-08T03:48:53.425Z,45.90
2022-12-08T03:51:25.365Z,45.40
2022-12-08T03:53:53.270Z,42.40
2022-12-08T03:56:28.722Z,49.25
2022-12-08T03:58:55.764Z,45.80
2022-12-08T04:01:24.180Z,52.75
2022-12-08T04:03:51.673Z,54.85
2022-12-08T04:06:21.996Z,53.63
2022-12-08T04:08:51.639Z,65.80
2022-12-08T04:11:19.914Z,61.47
2022-12-08T04:13:47.868Z,69.15
2022-12-08T04:16:22.139Z,63.35
2022-12-08T04:18:49.739Z,71.97
2022-12-08T04:21:17.788Z,72.03
2022-12-08T04:23:46.336Z,70.05
2022-12-08T04:26:14.513Z,63.85
2022-12-08T04:28:44.713Z,59.63
2022-12-08T04:31:13.702Z,65.85
2022-12-08T04:33:40.729Z,57.97
2022-12-08T04:36:08.545Z,60.38
2022-12-08T04:38:35.603Z,63.83
2022-12-08T04:41:03.199Z,67.05
2022-12-08T04:43:30.309Z,65.90
2022-12-08T04:45:58.419Z,74.90
2022-12-08T04:48:25.466Z,68.40
2022-12-08T04:50:52.830Z,65.40
2022-12-08T04:53:20.274Z,60.40
2022-12-08T04:55:49.733Z,60.72
2022-12-08T04:58:19.853Z,62.15
2022-12-08T05:00:48.612Z,60.72
2022-12-08T05:03:28.123Z,57.70
2022-12-08T05:05:56.433Z,63.22
2022-12-08T05:08:23.680Z,65.03
2022-12-08T05:10:52.080Z,66.82
2022-12-08T05:13:24.614Z,63.20
2022-12-08T05:15:53.705Z,63.83
2022-12-08T05:18:27.039Z,61.38
2022-12-08T05:23:28.646Z,68.75
2022-12-08T05:25:56.771Z,69.93
2022-12-08T05:31:19.795Z,77.38
2022-12-08T05:34:03.700Z,80.85
2022-12-08T05:36:34.887Z,71.88
2022-12-08T05:42:07.492Z,74.43
2022-12-08T05:44:37.319Z,80.20
2022-12-08T05:47:08.814Z,75.20
2022-12-08T06:00:41.114Z,76.63
2022-12-08T06:03:11.470Z,77.25
2022-12-08T06:05:41.125Z,75.10
2022-12-08T06:08:08.944Z,73.38
2022-12-08T06:21:30.435Z,68.93
2022-12-08T06:26:50.831Z,70.68
2022-12-08T06:29:20.281Z,74.30
2022-12-08T06:32:00.351Z,68.82
2022-12-08T06:34:27.509Z,71.50
2022-12-08T06:39:37.451Z,68.78
2022-12-08T06:45:20.126Z,67.60
2022-12-08T06:47:49.387Z,60.72
2022-12-08T06:53:17.990Z,67.80
2022-12-08T06:56:00.252Z,62.63
2022-12-08T06:58:46.053Z,64.10
2022-12-08T07:01:26.124Z,65.13
2022-12-08T07:03:53.585Z,60.45
2022-12-08T07:09:25.810Z,58.55
2022-12-08T07:11:55.057Z,57.15
2022-12-08T07:14:27.021Z,56.08
2022-12-08T07:16:54.666Z,65.50
2022-12-08T07:19:22.886Z,65.75
2022-12-08T07:21:52.636Z,75.72
2022-12-08T07:24:44.739Z,82.50
2022-12-08T07:27:22.778Z,89.75
2022-12-08T07:35:17.797Z,95.45
2022-12-08T07:37:45.417Z,109.88
2022-12-08T07:42:56.697Z,145.15
2022-12-08T07:45:31.457Z,179.00
2022-12-08T07:47:59.410Z,157.32
2022-12-08T07:58:53.575Z,138.90
2022-12-08T08:01:33.357Z,137.68
2022-12-08T08:04:15.397Z,129.70
2022-12-08T08:12:30.114Z,99.78
2022-12-08T08:20:20.094Z,96.25
2022-12-08T08:28:40.800Z,87.22
2022-12-08T08:31:29.095Z,87.55
2022-12-08T08:34:13.409Z,80.60
2022-12-08T08:36:43.682Z,87.75
2022-12-08T08:39:12.541Z,86.40
2022-12-08T08:41:44.874Z,82.15
2022-12-08T08:46:55.355Z,76.57
2022-12-08T08:49:22.782Z,75.10
2022-12-08T09:02:40.959Z,61.42
2022-12-08T09:13:32.389Z,66.97
2022-12-08T09:16:12.923Z,79.40
2022-12-08T09:21:27.985Z,72.68
2022-12-08T09:24:08.436Z,64.13
2022-12-08T09:29:17.829Z,61.53
2022-12-08T09:34:28.907Z,52.70
2022-12-08T09:36:58.509Z,45.42
2022-12-08T09:39:28.593Z,48.13
2022-12-08T09:45:14.440Z,46.97
2022-12-08T09:48:09.643Z,45.60
2022-12-08T09:53:51.184Z,45.42
2022-12-08T09:56:25.354Z,40.13
2022-12-08T09:59:10.624Z,44.40
2022-12-08T10:01:55.053Z,40.05
2022-12-08T10:04:34.540Z,42.85
2022-12-08T10:13:38.665Z,32.83
2022-12-08T10:16:23.122Z,35.72
2022-12-08T10:19:23.474Z,37.75
2022-12-08T10:24:52.137Z,30.48
2022-12-08T10:30:03.448Z,15.68
2022-12-08T10:32:39.878Z,31.88
2022-12-08T10:35:08.453Z,29.05
2022-12-08T10:52:29.836Z,25.98
2022-12-08T10:55:08.706Z,16.00
2022-12-08T10:57:44.663Z,28.85
2022-12-08T11:03:09.193Z,21.90
2022-12-08T11:05:46.923Z,27.20
2022-12-08T11:10:58.193Z,24.75
2022-12-08T11:13:42.237Z,27.65
2022-12-08T11:19:28.650Z,28.95
2022-12-08T11:21:56.059Z,25.92
2022-12-08T11:29:36.340Z,30.02
2022-12-08T11:35:04.610Z,26.65
2022-12-08T11:37:53.205Z,35.17
2022-12-08T11:40:44.229Z,36.13
2022-12-08T11:43:39.830Z,35.22
2022-12-08T11:46:43.271Z,32.10
2022-12-08T11:52:54.510Z,28.58
2022-12-08T11:58:43.051Z,28.55
2022-12-08T12:11:52.675Z,32.63
2022-12-08T12:20:55.770Z,31.33
2022-12-08T12:26:38.349Z,31.58
2022-12-08T12:29:13.649Z,27.80
2022-12-08T12:31:47.675Z,25.63
2022-12-08T12:34:28.121Z,27.30
2022-12-08T12:37:23.478Z,24.83
2022-12-08T12:40:01.799Z,29.30
2022-12-08T12:42:52.080Z,27.35
2022-12-08T12:45:35.891Z,31.00
2022-12-08T12:48:24.343Z,28.42
2022-12-08T12:51:45.589Z,24.98
2022-12-08T12:57:27.787Z,25.30
2022-12-08T13:02:50.696Z,23.67
2022-12-08T13:05:33.768Z,24.48
2022-12-08T13:08:24.194Z,26.00
2022-12-08T13:11:11.485Z,26.45
2022-12-08T13:14:00.672Z,25.27
2022-12-08T13:16:36.659Z,25.65
2022-12-08T13:22:45.453Z,26.50
2022-12-08T13:25:47.798Z,23.55
2022-12-08T13:28:27.630Z,24.67
2022-12-08T13:39:47.407Z,21.67
2022-12-08T13:42:51.785Z,21.40
2022-12-08T13:57:10.478Z,17.33
2022-12-08T13:59:45.535Z,19.27
2022-12-08T14:05:47.517Z,17.40
2022-12-08T14:11:44.702Z,18.88
2022-12-08T14:15:01.225Z,14.68
2022-12-08T14:22:46.983Z,19.98
2022-12-08T14:25:17.047Z,16.85
2022-12-08T14:30:32.099Z,18.50
2022-12-08T14:35:56.165Z,18.23
2022-12-08T14:38:27.283Z,19.98
2022-12-08T14:41:14.428Z,17.92
2022-12-08T14:46:34.160Z,19.48
2022-12-08T14:49:07.039Z,19.17
2022-12-08T14:54:28.127Z,19.23
2022-12-08T15:05:22.463Z,19.00
2022-12-08T15:10:39.968Z,23.00
2022-12-08T15:13:10.137Z,22.80
2022-12-08T15:15:57.982Z,20.50
2022-12-08T15:18:39.941Z,23.65
2022-12-08T15:21:12.879Z,20.17
2022-12-08T15:23:45.087Z,18.35
2022-12-08T15:26:23.796Z,21.42
2022-12-08T15:28:51.100Z,19.15
2022-12-08T15:31:18.936Z,23.38
2022-12-08T15:33:46.082Z,19.65
2022-12-08T15:36:13.592Z,22.42
2022-12-08T15:38:40.641Z,22.10
2022-12-08T15:41:13.001Z,21.42
2022-12-08T15:43:41.804Z,21.30
2022-12-08T15:46:09.230Z,22.42
2022-12-08T15:48:37.926Z,23.08
2022-12-08T15:51:05.587Z,21.30
2022-12-08T15:53:33.242Z,20.55
2022-12-08T15:58:55.119Z,21.42
2022-12-08T16:01:24.017Z,22.88
2022-12-08T16:09:33.460Z,22.75
2022-12-08T16:12:19.719Z,21.92
2022-12-08T16:15:47.088Z,21.30
2022-12-08T16:17:34.972Z,20.88
2022-12-08T16:20:02.818Z,19.48
2022-12-08T16:25:21.482Z,16.70
2022-12-08T16:28:03.150Z,11.45
2022-12-08T16:30:36.018Z,10.82
2022-12-08T16:33:03.466Z,15.32
2022-12-08T16:35:30.892Z,14.27
2022-12-08T16:37:58.565Z,14.07
2022-12-08T16:40:25.748Z,22.35
2022-12-08T16:42:55.141Z,31.35
2022-12-08T16:48:49.923Z,27.30
2022-12-08T16:51:25.109Z,23.48
2022-12-08T16:53:55.609Z,22.40
2022-12-08T16:56:28.761Z,25.40
2022-12-08T16:58:59.982Z,26.80
2022-12-08T17:04:31.718Z,15.95
2022-12-08T17:06:59.476Z,17.38
2022-12-08T17:09:28.611Z,19.08
2022-12-08T17:12:03.256Z,18.65
2022-12-08T17:14:35.441Z,14.88
2022-12-08T17:17:03.013Z,21.02
2022-12-08T17:19:30.732Z,15.40
2022-12-08T17:21:57.722Z,24.13
2022-12-08T17:24:29.053Z,20.15
2022-12-08T17:27:00.040Z,29.88
2022-12-08T17:29:27.421Z,25.42
2022-12-08T17:31:55.381Z,25.65
2022-12-08T17:34:26.185Z,18.48
2022-12-08T17:36:54.520Z,19.55
2022-12-08T17:39:22.389Z,25.35
2022-12-08T17:41:49.762Z,25.15
2022-12-08T17:44:20.158Z,23.58
2022-12-08T17:47:07.212Z,25.45
2022-12-08T17:49:34.617Z,23.10
2022-12-08T17:52:05.182Z,24.88
2022-12-08T17:54:33.029Z,24.40
2022-12-08T17:57:00.176Z,24.95
2022-12-08T17:59:30.788Z,25.65
2022-12-08T18:01:58.940Z,23.40
2022-12-08T18:04:27.229Z,17.05
2022-12-08T18:06:54.992Z,18.10
2022-12-08T18:09:23.578Z,18.52
2022-12-08T18:11:52.045Z,21.20
2022-12-08T18:14:20.278Z,17.65
2022-12-08T18:16:48.161Z,17.38
2022-12-08T18:19:16.222Z,18.73
2022-12-08T18:21:43.561Z,21.13
2022-12-08T18:24:23.321Z,20.05
2022-12-08T18:26:52.486Z,18.77
2022-12-08T18:29:22.671Z,18.77
2022-12-08T18:31:52.450Z,18.90
2022-12-08T18:34:19.924Z,19.52
2022-12-08T18:36:47.676Z,19.15
2022-12-08T18:39:35.195Z,20.35
2022-12-08T18:42:22.869Z,19.65
2022-12-08T18:44:50.680Z,19.75
2022-12-08T18:47:18.588Z,20.23
2022-12-08T18:49:49.084Z,20.58
2022-12-08T18:52:22.726Z,20.60
2022-12-08T18:55:10.074Z,21.17
2022-12-08T18:57:48.107Z,32.75
2022-12-08T19:00:18.499Z,33.15
2022-12-08T19:02:46.038Z,32.95
2022-12-08T19:05:14.290Z,38.97
2022-12-08T19:07:42.834Z,39.67
2022-12-08T19:10:10.955Z,40.85
2022-12-08T19:12:38.073Z,43.40
2022-12-08T19:15:06.133Z,39.63
2022-12-08T19:17:33.395Z,30.77
2022-12-08T19:20:00.902Z,34.90
2022-12-08T19:22:27.891Z,40.60
2022-12-08T19:24:55.479Z,34.00
2022-12-08T19:27:23.336Z,38.63
2022-12-08T19:29:50.739Z,46.30
2022-12-08T19:32:17.817Z,40.58
2022-12-08T19:34:45.486Z,40.78
2022-12-08T19:37:13.101Z,43.17
2022-12-08T19:39:59.671Z,33.80
2022-12-08T19:42:45.729Z,43.55
2022-12-08T19:45:21.716Z,37.33
2022-12-08T19:47:48.877Z,46.28
2022-12-08T19:50:37.589Z,43.92
2022-12-08T19:53:06.104Z,41.55
2022-12-08T19:55:34.413Z,48.42
2022-12-08T19:58:02.082Z,52.35
2022-12-08T20:00:34.109Z,53.25
2022-12-08T20:03:02.325Z,53.75
2022-12-08T20:05:32.852Z,45.20
2022-12-08T20:08:07.497Z,49.00
2022-12-08T20:10:42.348Z,49.35
2022-12-08T20:13:31.125Z,41.55
2022-12-08T20:18:31.545Z,40.67
2022-12-08T20:20:59.638Z,45.45
2022-12-08T20:23:31.503Z,36.05
2022-12-08T20:26:00.227Z,40.90
2022-12-08T20:28:27.359Z,39.67
2022-12-08T20:31:00.054Z,52.03
2022-12-08T20:33:36.032Z,35.65
2022-12-08T20:36:08.204Z,36.45
2022-12-08T20:38:36.329Z,38.85
2022-12-08T20:41:16.713Z,32.67
2022-12-08T20:43:46.059Z,27.55
2022-12-08T20:46:17.529Z,29.88
2022-12-08T20:48:44.946Z,30.45
2022-12-08T20:51:17.226Z,35.30
2022-12-08T20:53:45.303Z,31.27
2022-12-08T20:56:20.326Z,32.83
2022-12-08T20:58:48.322Z,33.33
2022-12-08T21:01:18.260Z,32.33
2022-12-08T21:03:46.983Z,29.83
2022-12-08T21:06:15.185Z,30.90
2022-12-08T21:08:43.575Z,25.58
2022-12-08T21:13:39.515Z,26.35
2022-12-08T21:16:09.471Z,25.15
2022-12-08T21:18:39.615Z,32.05
2022-12-08T21:21:27.137Z,34.17
2022-12-08T21:23:57.647Z,30.38
2022-12-08T21:26:28.110Z,31.00
2022-12-08T21:28:55.621Z,26.75
2022-12-08T21:31:23.740Z,23.92
2022-12-08T21:33:51.093Z,27.65
2022-12-08T21:36:21.002Z,26.13
2022-12-08T21:38:48.381Z,24.90
2022-12-08T21:41:40.889Z,18.05
2022-12-08T21:44:10.313Z,14.15
2022-12-08T21:46:38.550Z,18.48
2022-12-08T21:49:07.282Z,19.20
2022-12-08T21:51:42.347Z,20.95
2022-12-08T21:54:16.743Z,20.42
2022-12-08T21:56:48.323Z,19.60
2022-12-08T21:59:16.410Z,16.83
2022-12-08T22:01:44.249Z,19.52
2022-12-08T22:04:27.289Z,13.85
2022-12-08T22:06:55.140Z,15.90
2022-12-08T22:09:24.368Z,18.33
2022-12-08T22:11:52.474Z,18.63
2022-12-08T22:14:20.095Z,18.42
2022-12-08T22:16:48.058Z,20.60
2022-12-08T22:19:17.369Z,21.85
2022-12-08T22:24:12.714Z,16.20
2022-12-08T22:26:48.356Z,14.52
2022-12-08T22:29:16.441Z,17.48
2022-12-08T22:31:46.266Z,15.30
2022-12-08T22:34:14.813Z,15.45
2022-12-08T22:36:43.279Z,17.45
2022-12-08T22:39:13.537Z,16.08
2022-12-08T22:41:40.930Z,15.07
2022-12-08T22:44:09.064Z,16.95
2022-12-08T22:46:37.602Z,17.70
2022-12-08T22:49:04.696Z,16.08
2022-12-08T22:51:32.081Z,20.83
2022-12-08T22:53:59.360Z,17.73
2022-12-08T22:56:30.675Z,16.40
2022-12-08T22:58:58.495Z,20.52
2022-12-08T23:01:29.995Z,20.88
2022-12-08T23:03:58.728Z,16.70
2022-12-08T23:06:28.097Z,20.33
2022-12-08T23:08:57.207Z,19.50
2022-12-08T23:11:27.988Z,18.60
2022-12-08T23:14:03.139Z,19.05
2022-12-08T23:16:30.793Z,18.55
2022-12-08T23:18:59.328Z,17.65
2022-12-08T23:21:27.063Z,25.30
2022-12-08T23:23:54.299Z,13.57
2022-12-08T23:26:28.085Z,15.00
2022-12-08T23:28:56.377Z,18.80
2022-12-08T23:31:24.855Z,17.10
2022-12-08T23:33:54.238Z,14.07
2022-12-08T23:36:26.343Z,17.95
2022-12-08T23:38:54.315Z,13.48
2022-12-08T23:41:22.090Z,14.80
2022-12-08T23:43:52.858Z,10.90
2022-12-08T23:46:21.973Z,13.55
2022-12-08T23:48:50.198Z,14.35
2022-12-08T23:51:18.512Z,14.43
2022-12-08T23:53:45.975Z,12.00
2022-12-08T23:56:15.868Z,10.77
2022-12-08T23:58:43.630Z,14.57
